Time;durP1;ratioP1;P1;durP2;ratioP2;P2;SDS_P1;SDS_P2;PMS_P1;PMS_P2;Temp;Humidity;BMP_temperature;BMP_pressure;BME280_temperature;BME280_humidity;BME280_pressure;Samples;Min_cycle;Max_cycle;Signal;HPM_P1;HPM_P2
2022/07/28 00:00:21;;;;;;;3.80;1.50;;;18.40;31.70;;;;;;5034405;28;20932;-70
2022/07/28 00:02:48;;;;;;;2.97;1.40;;;18.30;31.60;;;;;;5034415;28;20424;-70
2022/07/28 00:05:15;;;;;;;1.47;1.20;;;18.30;31.90;;;;;;5034013;28;20802;-70
2022/07/28 00:07:42;;;;;;;2.50;1.80;;;18.30;32.10;;;;;;5034166;28;21117;-69
2022/07/28 00:10:09;;;;;;;5.20;1.40;;;18.20;32.00;;;;;;5034147;28;20971;-69
2022/07/28 00:12:38;;;;;;;1.83;1.60;;;18.20;32.40;;;;;;5034468;28;20956;-71
2022/07/28 00:15:06;;;;;;;4.53;1.40;;;18.10;32.30;;;;;;5035231;28;20565;-71
2022/07/28 00:17:33;;;;;;;2.07;1.73;;;18.10;32.40;;;;;;5035578;28;20425;-70
2022/07/28 00:20:00;;;;;;;2.90;1.60;;;18.10;32.60;;;;;;5035459;28;20449;-70
2022/07/28 00:22:27;;;;;;;3.57;1.77;;;18.10;32.70;;;;;;5034454;28;20469;-72
2022/07/28 00:24:53;;;;;;;2.77;1.60;;;18.10;32.80;;;;;;5035301;28;20555;-72
2022/07/28 00:27:20;;;;;;;2.47;1.73;;;18.10;32.90;;;;;;5036885;28;20465;-72
2022/07/28 00:29:48;;;;;;;2.40;1.53;;;18.10;32.90;;;;;;5037018;28;20543;-76
2022/07/28 00:32:15;;;;;;;5.33;2.07;;;18.10;32.90;;;;;;5034963;28;20457;-73
2022/07/28 00:34:42;;;;;;;1.97;1.30;;;18.10;33.10;;;;;;5035060;28;20464;-72
2022/07/28 00:37:10;;;;;;;2.07;1.53;;;18.00;33.20;;;;;;5035229;28;20429;-73
2022/07/28 00:39:36;;;;;;;1.73;1.53;;;18.00;33.20;;;;;;5035693;28;20443;-71
2022/07/28 00:42:04;;;;;;;3.20;1.53;;;18.00;33.00;;;;;;5035949;28;20460;-72
2022/07/28 00:44:31;;;;;;;2.00;1.37;;;17.90;32.70;;;;;;5035467;28;20938;-71
2022/07/28 00:46:59;;;;;;;1.83;1.67;;;17.90;32.80;;;;;;5034515;28;20971;-71
2022/07/28 00:49:25;;;;;;;2.37;1.60;;;17.90;32.80;;;;;;5035218;28;20485;-72
2022/07/28 00:51:53;;;;;;;4.43;1.40;;;17.80;32.90;;;;;;5035751;28;20465;-72
2022/07/28 00:54:20;;;;;;;3.23;1.57;;;17.80;32.90;;;;;;5035800;28;20452;-72
2022/07/28 00:56:47;;;;;;;1.63;1.53;;;17.70;32.80;;;;;;5036922;28;20438;-72
2022/07/28 00:59:13;;;;;;;3.87;1.30;;;17.80;32.80;;;;;;5042644;28;20833;-71
2022/07/28 01:01:40;;;;;;;1.40;1.30;;;17.70;32.70;;;;;;5043405;28;20511;-72
2022/07/28 01:04:09;;;;;;;2.60;1.70;;;17.70;32.90;;;;;;5042948;28;20481;-72
2022/07/28 01:06:49;;;;;;;1.90;1.70;;;17.80;32.90;;;;;;5040172;28;20453;-72
2022/07/28 01:09:24;;;;;;;3.30;1.70;;;17.80;32.80;;;;;;5036610;28;20463;-72
2022/07/28 01:11:59;;;;;;;2.50;1.60;;;17.70;32.70;;;;;;5036069;28;20479;-71
2022/07/28 01:14:33;;;;;;;5.73;1.47;;;17.70;32.70;;;;;;5036652;28;20527;-72
2022/07/28 01:17:06;;;;;;;6.43;1.83;;;17.70;32.80;;;;;;5035988;28;20548;-72
2022/07/28 01:19:50;;;;;;;4.23;1.60;;;17.70;32.90;;;;;;5035413;28;20456;-72
2022/07/28 01:22:21;;;;;;;1.83;1.70;;;17.70;32.80;;;;;;5034544;28;20906;-73
2022/07/28 01:24:54;;;;;;;2.40;1.87;;;17.70;32.80;;;;;;5034769;28;20478;-71
2022/07/28 01:27:37;;;;;;;2.13;1.30;;;17.70;32.60;;;;;;5034336;28;20954;-69
2022/07/28 01:30:08;;;;;;;2.27;1.60;;;17.70;32.60;;;;;;5033651;28;20493;-70
2022/07/28 01:32:41;;;;;;;2.13;1.80;;;17.70;32.60;;;;;;5032728;28;20766;-69
2022/07/28 01:35:13;;;;;;;2.80;1.40;;;17.70;32.70;;;;;;5033131;28;21075;-70
2022/07/28 01:37:44;;;;;;;1.70;1.43;;;17.70;32.60;;;;;;5033689;28;20448;-72
2022/07/28 01:40:14;;;;;;;2.57;1.50;;;17.60;32.60;;;;;;5036139;28;20460;-71
2022/07/28 01:42:49;;;;;;;1.50;1.40;;;17.70;32.60;;;;;;5045386;28;20465;-71
2022/07/28 01:45:19;;;;;;;2.93;1.77;;;17.60;32.80;;;;;;5044916;28;20829;-71
2022/07/28 01:47:48;;;;;;;2.13;1.27;;;17.60;32.90;;;;;;5040345;28;20421;-70
2022/07/28 01:50:17;;;;;;;6.23;1.40;;;17.50;32.90;;;;;;5038132;28;21007;-72
2022/07/28 01:52:47;;;;;;;2.17;1.80;;;17.50;33.00;;;;;;5041579;28;20458;-72
2022/07/28 01:55:17;;;;;;;3.20;1.63;;;17.50;33.00;;;;;;5039972;28;20496;-73
2022/07/28 01:57:45;;;;;;;1.40;1.30;;;17.40;33.20;;;;;;5039222;28;20424;-70
2022/07/28 02:00:13;;;;;;;5.47;1.70;;;17.40;33.40;;;;;;5036743;28;20916;-70
2022/07/28 02:02:43;;;;;;;3.40;1.60;;;17.30;33.20;;;;;;5037901;28;20493;-71
2022/07/28 02:05:14;;;;;;;3.10;1.40;;;17.30;33.50;;;;;;5039712;28;20534;-71
2022/07/28 02:07:43;;;;;;;2.90;1.50;;;17.20;33.60;;;;;;5039241;28;20454;-71
2022/07/28 02:10:14;;;;;;;1.90;1.50;;;17.20;33.60;;;;;;5037288;28;20525;-71
2022/07/28 02:12:44;;;;;;;1.43;1.30;;;17.20;33.80;;;;;;5036758;28;20438;-71
2022/07/28 02:15:13;;;;;;;3.53;1.40;;;17.30;33.60;;;;;;5038363;28;20480;-72
2022/07/28 02:17:42;;;;;;;1.77;1.20;;;17.30;33.50;;;;;;5038372;28;20453;-71
2022/07/28 02:20:12;;;;;;;3.40;1.67;;;17.30;33.70;;;;;;5037433;28;20450;-69
2022/07/28 02:22:40;;;;;;;2.40;1.60;;;17.30;33.80;;;;;;5037618;28;20452;-71
2022/07/28 02:25:08;;;;;;;1.77;1.30;;;17.20;33.90;;;;;;5039832;28;20488;-71
2022/07/28 02:27:38;;;;;;;2.83;1.53;;;17.10;34.10;;;;;;5038678;28;20769;-71
2022/07/28 02:30:10;;;;;;;2.83;1.83;;;17.10;34.60;;;;;;5037333;28;20588;-72
2022/07/28 02:32:40;;;;;;;1.60;1.50;;;16.90;35.00;;;;;;5037108;28;20477;-71
2022/07/28 02:35:12;;;;;;;4.03;1.40;;;16.90;35.40;;;;;;5038963;28;20483;-71
2022/07/28 02:37:41;;;;;;;2.23;1.70;;;16.90;35.90;;;;;;5039422;28;20437;-72
2022/07/28 02:40:14;;;;;;;5.77;1.73;;;16.90;35.90;;;;;;5039634;28;20464;-72
2022/07/28 02:42:44;;;;;;;5.30;1.80;;;16.80;35.80;;;;;;5039387;28;20430;-71
2022/07/28 02:45:12;;;;;;;1.20;1.10;;;16.80;35.80;;;;;;5038225;28;20576;-72
2022/07/28 02:47:45;;;;;;;1.70;1.53;;;16.70;35.70;;;;;;5038161;28;20486;-71
2022/07/28 02:50:15;;;;;;;2.60;1.90;;;16.70;35.70;;;;;;5036608;28;20488;-71
2022/07/28 02:52:44;;;;;;;1.63;1.53;;;16.70;35.70;;;;;;5035206;28;20845;-73
2022/07/28 02:55:14;;;;;;;2.40;1.37;;;16.70;35.80;;;;;;5035565;28;20480;-72
2022/07/28 02:57:42;;;;;;;3.60;1.60;;;16.70;35.70;;;;;;5035869;28;20931;-71
2022/07/28 03:00:11;;;;;;;2.07;1.33;;;16.70;35.70;;;;;;5036006;28;20460;-71
2022/07/28 03:02:42;;;;;;;2.27;1.60;;;16.60;35.60;;;;;;5035925;28;20462;-71
2022/07/28 03:05:11;;;;;;;2.47;1.57;;;16.50;35.80;;;;;;5038992;28;21058;-71
2022/07/28 03:07:41;;;;;;;2.80;1.30;;;16.50;36.70;;;;;;5036553;28;20457;-72
2022/07/28 03:10:08;;;;;;;1.40;1.30;;;16.40;37.40;;;;;;5037458;28;20490;-72
2022/07/28 03:12:35;;;;;;;3.83;1.90;;;16.30;37.80;;;;;;5034203;28;20450;-73
2022/07/28 03:15:02;;;;;;;4.97;1.40;;;16.20;38.20;;;;;;5034128;28;20822;-70
2022/07/28 03:17:29;;;;;;;1.47;1.37;;;16.10;38.60;;;;;;5034573;28;20524;-70
2022/07/28 03:19:56;;;;;;;1.60;1.50;;;16.00;39.10;;;;;;5035026;28;20450;-72
2022/07/28 03:22:23;;;;;;;3.23;1.57;;;16.00;39.50;;;;;;5034662;28;20217;-72
2022/07/28 03:24:56;;;;;;;2.17;1.63;;;16.00;39.70;;;;;;5034607;28;21073;-72
2022/07/28 03:27:29;;;;;;;4.13;1.48;;;15.90;40.00;;;;;;5034707;28;20432;-73
2022/07/28 03:30:00;;;;;;;3.35;1.48;;;15.90;40.30;;;;;;5035014;28;20223;-72
2022/07/28 03:32:30;;;;;;;3.17;1.58;;;15.80;40.60;;;;;;5034711;28;20277;-73
2022/07/28 03:34:58;;;;;;;1.60;1.42;;;15.80;40.70;;;;;;5034239;28;20239;-71
2022/07/28 03:37:29;;;;;;;1.73;1.48;;;15.80;40.80;;;;;;5034352;28;20215;-72
2022/07/28 03:40:00;;;;;;;1.77;1.67;;;15.80;41.10;;;;;;5034562;28;20218;-72
2022/07/28 03:42:28;;;;;;;3.05;1.65;;;15.80;40.90;;;;;;5034605;28;20211;-71
2022/07/28 03:44:56;;;;;;;2.93;1.67;;;15.80;41.30;;;;;;5034673;28;20223;-73
2022/07/28 03:47:24;;;;;;;2.87;1.80;;;15.80;41.40;;;;;;5036804;28;20464;-72
2022/07/28 03:49:51;;;;;;;5.43;1.70;;;15.70;41.40;;;;;;5040313;28;20540;-71
2022/07/28 03:52:18;;;;;;;2.10;1.80;;;15.80;41.60;;;;;;5041371;28;20456;-71
2022/07/28 03:54:45;;;;;;;3.73;2.03;;;15.80;41.50;;;;;;5044587;28;20235;-72
2022/07/28 03:57:13;;;;;;;3.63;2.10;;;15.80;41.60;;;;;;5042235;28;20545;-69
2022/07/28 03:59:40;;;;;;;2.80;1.70;;;15.80;41.80;;;;;;5042423;28;20209;-71
2022/07/28 04:02:07;;;;;;;3.28;1.80;;;15.70;42.00;;;;;;5040638;28;20461;-71
2022/07/28 04:04:34;;;;;;;2.53;1.50;;;15.80;42.10;;;;;;5034578;28;20285;-72
2022/07/28 04:07:01;;;;;;;3.17;1.75;;;15.70;42.00;;;;;;5033936;28;20635;-72
2022/07/28 04:09:28;;;;;;;1.58;1.48;;;15.70;42.10;;;;;;5034082;28;20207;-72
2022/07/28 04:11:55;;;;;;;3.50;1.40;;;15.70;42.50;;;;;;5033705;28;20250;-71
2022/07/28 04:14:23;;;;;;;3.50;1.67;;;15.70;42.60;;;;;;5033566;28;20482;-72
2022/07/28 04:16:50;;;;;;;3.60;1.80;;;15.70;43.00;;;;;;5033361;28;20671;-72
2022/07/28 04:19:17;;;;;;;2.67;1.60;;;15.60;43.20;;;;;;5033016;28;20207;-72
2022/07/28 04:21:44;;;;;;;4.43;1.87;;;15.60;43.30;;;;;;5033114;28;20796;-76
2022/07/28 04:24:11;;;;;;;3.33;2.03;;;15.60;43.50;;;;;;5032954;28;20891;-73
2022/07/28 04:26:38;;;;;;;3.53;1.87;;;15.70;43.30;;;;;;5033205;28;20857;-72
2022/07/28 04:29:05;;;;;;;3.30;2.10;;;15.70;43.40;;;;;;5033407;28;20462;-72
2022/07/28 04:31:33;;;;;;;6.63;2.13;;;15.80;43.40;;;;;;5033120;28;20456;-71
2022/07/28 04:34:00;;;;;;;3.50;1.37;;;15.90;43.20;;;;;;5033091;28;20482;-72
2022/07/28 04:36:27;;;;;;;2.00;1.67;;;16.10;42.80;;;;;;5033063;28;20537;-73
2022/07/28 04:38:56;;;;;;;2.73;1.63;;;16.20;42.30;;;;;;5033324;28;20464;-72
2022/07/28 04:41:23;;;;;;;1.80;1.70;;;16.20;42.20;;;;;;5032992;28;20925;-72
2022/07/28 04:43:49;;;;;;;2.20;1.60;;;16.20;42.00;;;;;;5033063;28;20561;-72
2022/07/28 04:46:16;;;;;;;1.70;1.60;;;16.20;42.10;;;;;;5033570;28;20453;-72
2022/07/28 04:48:44;;;;;;;3.80;1.70;;;16.20;42.00;;;;;;5033286;28;20207;-72
2022/07/28 04:51:11;;;;;;;1.80;1.37;;;16.30;41.90;;;;;;5033634;28;20584;-72
2022/07/28 04:53:38;;;;;;;2.10;1.53;;;16.50;41.50;;;;;;5033867;28;20440;-72
2022/07/28 04:56:05;;;;;;;3.53;1.53;;;16.60;41.10;;;;;;5033694;28;20428;-72
2022/07/28 04:58:32;;;;;;;5.10;1.83;;;16.70;40.80;;;;;;5033179;28;20793;-72
2022/07/28 05:00:59;;;;;;;3.10;1.60;;;16.90;40.00;;;;;;5032859;28;20565;-75
2022/07/28 05:03:26;;;;;;;3.30;1.90;;;17.20;39.50;;;;;;5033886;28;20446;-76
2022/07/28 05:05:54;;;;;;;3.50;1.80;;;17.60;38.30;;;;;;5034497;28;20484;-75
2022/07/28 05:08:21;;;;;;;4.13;1.97;;;18.10;37.00;;;;;;5036651;28;20462;-74
2022/07/28 05:10:48;;;;;;;1.70;1.60;;;18.50;37.10;;;;;;5042490;28;20460;-75
2022/07/28 05:13:15;;;;;;;3.10;1.50;;;18.40;36.20;;;;;;5041478;28;20514;-75
2022/07/28 05:15:42;;;;;;;1.40;1.30;;;18.00;36.90;;;;;;5039793;28;20455;-76
2022/07/28 05:18:08;;;;;;;7.03;1.60;;;18.20;37.10;;;;;;5035100;28;20468;-75
2022/07/28 05:20:35;;;;;;;4.13;1.70;;;18.20;36.70;;;;;;5034095;28;20449;-72
2022/07/28 05:23:03;;;;;;;2.73;1.70;;;18.30;37.20;;;;;;5038326;28;21024;-74
2022/07/28 05:25:30;;;;;;;5.00;1.80;;;18.90;35.50;;;;;;5038905;28;20477;-73
2022/07/28 05:27:57;;;;;;;9.83;2.00;;;19.40;33.60;;;;;;5035413;28;20457;-72
2022/07/28 05:30:24;;;;;;;2.13;1.30;;;19.60;32.90;;;;;;5029047;28;20490;-73
2022/07/28 05:32:57;;;;;;;3.70;1.50;;;19.70;32.20;;;;;;5019791;28;20466;-72
2022/07/28 05:35:25;;;;;;;2.47;1.30;;;19.60;31.90;;;;;;5021769;28;20505;-72
2022/07/28 05:37:52;;;;;;;6.40;2.00;;;19.30;33.10;;;;;;5022437;28;20948;-72
2022/07/28 05:40:20;;;;;;;3.30;1.80;;;19.40;32.60;;;;;;5024032;28;20453;-71
2022/07/28 05:42:47;;;;;;;5.23;1.40;;;19.70;31.90;;;;;;5033545;28;20449;-74
2022/07/28 05:45:17;;;;;;;3.37;1.40;;;19.90;31.50;;;;;;5037419;28;20482;-75
2022/07/28 05:47:45;;;;;;;5.00;1.47;;;20.00;30.80;;;;;;5037487;28;20462;-75
2022/07/28 05:50:13;;;;;;;3.17;1.40;;;20.10;30.30;;;;;;5036525;28;20528;-75
2022/07/28 05:52:40;;;;;;;2.43;1.40;;;19.80;31.20;;;;;;5035873;28;20459;-75
2022/07/28 05:55:08;;;;;;;1.80;1.40;;;19.30;32.50;;;;;;5030173;28;20489;-74
2022/07/28 05:57:37;;;;;;;6.00;1.60;;;19.00;33.10;;;;;;5022021;28;20808;-75
2022/07/28 06:00:06;;;;;;;2.33;1.30;;;19.20;32.70;;;;;;5026866;28;20890;-74
2022/07/28 06:02:33;;;;;;;1.53;1.20;;;19.20;32.90;;;;;;5018162;28;20476;-74
2022/07/28 06:05:00;;;;;;;4.43;1.40;;;19.20;32.90;;;;;;5018621;28;20463;-73
2022/07/28 06:07:27;;;;;;;2.73;1.23;;;19.90;31.20;;;;;;5018245;28;20974;-73
2022/07/28 06:09:54;;;;;;;9.43;1.83;;;19.70;31.10;;;;;;5018392;28;20917;-76
2022/07/28 06:12:21;;;;;;;3.43;1.30;;;19.40;32.00;;;;;;5017980;28;20556;-73
2022/07/28 06:14:49;;;;;;;3.73;1.40;;;19.70;31.50;;;;;;5017232;28;20485;-74
2022/07/28 06:17:16;;;;;;;1.70;1.60;;;20.00;30.50;;;;;;5017564;28;20435;-74
2022/07/28 06:19:43;;;;;;;9.43;1.83;;;20.00;30.20;;;;;;5016811;28;20915;-74
2022/07/28 06:22:10;;;;;;;3.53;1.30;;;20.10;30.40;;;;;;5016661;28;20815;-75
2022/07/28 06:24:37;;;;;;;4.70;1.37;;;20.80;29.50;;;;;;5016381;28;21007;-74
2022/07/28 06:27:04;;;;;;;5.60;1.60;;;20.80;29.50;;;;;;5016531;28;20462;-74
2022/07/28 06:29:31;;;;;;;5.47;1.40;;;20.00;30.50;;;;;;5016774;28;20425;-75
2022/07/28 06:31:59;;;;;;;3.13;1.70;;;19.90;30.90;;;;;;5019263;28;20469;-75
2022/07/28 06:34:26;;;;;;;8.80;1.60;;;20.10;30.40;;;;;;5018552;28;20851;-73
2022/07/28 06:36:53;;;;;;;2.73;1.50;;;20.20;30.20;;;;;;5016778;28;20433;-74
2022/07/28 06:39:20;;;;;;;3.77;1.60;;;20.40;30.40;;;;;;5017042;28;20815;-74
2022/07/28 06:41:47;;;;;;;1.57;1.20;;;20.50;29.80;;;;;;5016123;28;20458;-74
2022/07/28 06:44:14;;;;;;;1.10;1.00;;;20.60;29.80;;;;;;5016043;28;20547;-74
2022/07/28 06:46:40;;;;;;;4.07;1.67;;;20.80;29.50;;;;;;5015654;28;20451;-74
2022/07/28 06:49:08;;;;;;;1.60;1.50;;;20.80;29.50;;;;;;5016173;28;20458;-75
2022/07/28 06:51:36;;;;;;;3.67;1.63;;;21.10;29.70;;;;;;5016944;28;20498;-74
2022/07/28 06:54:03;;;;;;;6.47;1.40;;;21.20;29.80;;;;;;5018471;28;21016;-74
2022/07/28 06:56:30;;;;;;;2.10;1.70;;;20.50;30.00;;;;;;5019241;28;20553;-74
2022/07/28 06:58:57;;;;;;;2.03;1.40;;;20.10;30.90;;;;;;5019232;28;20437;-76
2022/07/28 07:01:24;;;;;;;5.27;1.90;;;19.80;32.00;;;;;;5019382;28;20433;-73
2022/07/28 07:03:51;;;;;;;6.50;1.87;;;19.80;32.00;;;;;;5019351;28;20450;-75
2022/07/28 07:06:19;;;;;;;6.07;1.80;;;19.80;32.30;;;;;;5019046;28;20461;-74
2022/07/28 07:08:47;;;;;;;2.70;1.63;;;19.90;32.40;;;;;;5020785;28;20463;-74
2022/07/28 07:11:14;;;;;;;4.40;2.10;;;20.20;32.00;;;;;;5020380;28;20822;-74
2022/07/28 07:13:41;;;;;;;3.20;1.63;;;20.30;32.00;;;;;;5019448;28;20461;-74
2022/07/28 07:16:07;;;;;;;3.30;1.80;;;20.30;31.80;;;;;;5022829;28;20517;-74
2022/07/28 07:18:34;;;;;;;2.50;1.40;;;20.20;32.20;;;;;;5020379;28;20457;-74
2022/07/28 07:21:01;;;;;;;3.37;1.87;;;20.10;32.10;;;;;;5021436;28;20433;-74
2022/07/28 07:23:30;;;;;;;3.27;1.90;;;19.80;33.10;;;;;;5018368;28;20794;-74
2022/07/28 07:25:57;;;;;;;3.93;2.00;;;19.90;33.00;;;;;;5018143;28;20453;-74
2022/07/28 07:28:24;;;;;;;8.50;2.40;;;20.00;33.20;;;;;;5017887;28;20433;-74
2022/07/28 07:30:51;;;;;;;5.17;2.00;;;20.10;33.10;;;;;;5017416;28;20476;-73
2022/07/28 07:33:18;;;;;;;3.80;2.00;;;20.40;32.60;;;;;;5015778;28;20434;-74
2022/07/28 07:35:45;;;;;;;3.70;1.90;;;20.40;32.50;;;;;;5015304;28;20565;-75
2022/07/28 07:38:12;;;;;;;7.53;1.80;;;20.50;32.40;;;;;;5015620;28;20451;-75
2022/07/28 07:40:40;;;;;;;7.53;2.30;;;20.80;32.10;;;;;;5016403;28;20429;-74
2022/07/28 07:43:07;;;;;;;5.53;2.03;;;20.90;31.90;;;;;;5016595;28;20482;-75
2022/07/28 07:45:34;;;;;;;3.20;2.10;;;21.30;31.30;;;;;;5017155;28;20485;-75
2022/07/28 07:48:01;;;;;;;9.90;3.00;;;21.20;31.10;;;;;;5017418;28;20459;-75
2022/07/28 07:50:28;;;;;;;4.43;2.27;;;21.40;31.40;;;;;;5016596;28;20512;-74
2022/07/28 07:52:55;;;;;;;4.50;2.00;;;21.40;31.20;;;;;;5014757;28;20425;-75
2022/07/28 07:55:22;;;;;;;4.47;2.57;;;21.40;31.10;;;;;;5016511;28;20449;-75
2022/07/28 07:57:50;;;;;;;3.10;2.13;;;21.30;31.30;;;;;;5019147;28;20437;-75
2022/07/28 08:00:18;;;;;;;9.37;2.20;;;21.40;31.10;;;;;;5021790;28;20448;-74
2022/07/28 08:02:45;;;;;;;7.47;2.80;;;21.50;30.70;;;;;;5028839;28;20464;-75
2022/07/28 08:05:12;;;;;;;4.90;2.57;;;21.40;31.50;;;;;;5036901;28;20482;-75
2022/07/28 08:07:39;;;;;;;2.20;1.97;;;21.40;31.50;;;;;;5033547;28;20453;-74
2022/07/28 08:10:07;;;;;;;3.17;2.37;;;21.50;31.00;;;;;;5025116;28;20552;-75
2022/07/28 08:12:33;;;;;;;8.33;3.20;;;21.80;31.50;;;;;;5024494;28;20498;-74
2022/07/28 08:15:02;;;;;;;4.93;2.10;;;22.00;30.30;;;;;;5017248;28;20449;-74
2022/07/28 08:17:29;;;;;;;3.10;2.80;;;21.70;30.90;;;;;;5014624;28;20823;-74
2022/07/28 08:19:56;;;;;;;4.53;3.00;;;21.30;32.70;;;;;;5014921;28;20441;-75
2022/07/28 08:22:23;;;;;;;2.60;2.40;;;21.10;32.50;;;;;;5015134;28;20427;-75
2022/07/28 08:24:51;;;;;;;3.80;2.60;;;21.00;33.00;;;;;;5015034;28;20489;-76
2022/07/28 08:27:18;;;;;;;7.13;3.20;;;21.20;32.80;;;;;;5015435;28;20469;-74
2022/07/28 08:29:45;;;;;;;3.93;2.70;;;21.50;32.50;;;;;;5014019;28;20463;-74
2022/07/28 08:32:13;;;;;;;7.90;2.60;;;21.80;31.70;;;;;;5014086;28;20499;-75
2022/07/28 08:34:40;;;;;;;6.27;2.87;;;22.00;31.60;;;;;;5014490;28;20487;-74
2022/07/28 08:37:06;;;;;;;5.23;2.90;;;22.20;30.50;;;;;;5016319;28;20467;-73
2022/07/28 08:39:34;;;;;;;3.83;3.00;;;22.50;30.80;;;;;;5016074;28;20461;-74
2022/07/28 08:42:05;;;;;;;4.43;2.80;;;22.70;31.00;;;;;;5017480;28;20829;-74
2022/07/28 08:44:39;;;;;;;3.90;2.80;;;22.90;30.10;;;;;;5017110;28;20540;-75
2022/07/28 08:47:11;;;;;;;3.90;3.00;;;22.70;30.10;;;;;;5016252;28;20451;-75
2022/07/28 08:49:42;;;;;;;4.50;3.27;;;22.70;31.00;;;;;;5017475;28;20437;-73
2022/07/28 08:52:11;;;;;;;5.83;2.83;;;22.50;30.80;;;;;;5015183;28;20465;-75
2022/07/28 08:54:42;;;;;;;6.23;2.70;;;22.60;30.90;;;;;;5014749;28;20446;-73
2022/07/28 08:57:13;;;;;;;5.63;3.07;;;22.90;31.10;;;;;;5014207;28;20441;-75
2022/07/28 08:59:40;;;;;;;3.97;2.97;;;23.00;30.50;;;;;;5014227;28;20446;-74
2022/07/28 09:02:11;;;;;;;8.63;3.20;;;22.90;31.10;;;;;;5013716;28;20454;-74
2022/07/28 09:04:38;;;;;;;8.10;3.47;;;23.20;31.40;;;;;;5013084;28;20998;-75
2022/07/28 09:07:07;;;;;;;3.30;3.00;;;23.50;30.30;;;;;;5013805;28;20475;-74
2022/07/28 09:09:34;;;;;;;4.13;3.60;;;23.60;30.20;;;;;;5014563;28;20797;-75
2022/07/28 09:12:04;;;;;;;4.73;3.20;;;23.60;30.60;;;;;;5013579;28;20472;-75
2022/07/28 09:14:31;;;;;;;5.80;3.60;;;23.70;30.00;;;;;;5014095;28;20470;-74
2022/07/28 09:16:59;;;;;;;5.30;3.30;;;23.60;30.70;;;;;;5023332;28;20435;-74
2022/07/28 09:19:26;;;;;;;5.90;3.13;;;23.50;31.30;;;;;;5028514;28;20964;-74
2022/07/28 09:21:53;;;;;;;6.10;3.10;;;23.70;30.60;;;;;;5020097;28;20445;-73
2022/07/28 09:24:35;;;;;;;6.47;3.53;;;24.20;29.70;;;;;;5012798;28;20478;-73
2022/07/28 09:27:05;;;;;;;3.80;3.50;;;24.10;29.40;;;;;;5012707;28;20450;-74
2022/07/28 09:29:32;;;;;;;6.87;3.90;;;23.60;30.60;;;;;;5012629;28;20836;-74
2022/07/28 09:31:59;;;;;;;5.37;3.00;;;23.30;31.60;;;;;;5012552;28;20465;-75
2022/07/28 09:34:26;;;;;;;9.07;3.57;;;23.40;31.60;;;;;;5012907;28;20495;-74
2022/07/28 09:36:53;;;;;;;4.83;3.63;;;23.90;30.60;;;;;;5014492;28;20432;-74
2022/07/28 09:39:33;;;;;;;4.10;3.30;;;24.20;29.70;;;;;;5017162;28;20453;-75
2022/07/28 09:42:01;;;;;;;4.60;3.83;;;24.40;29.90;;;;;;5026974;28;20437;-73
2022/07/28 09:44:29;;;;;;;5.43;3.90;;;24.60;29.70;;;;;;5033734;28;20470;-72
2022/07/28 09:46:56;;;;;;;4.43;3.57;;;24.70;29.40;;;;;;5037102;28;20477;-72
2022/07/28 09:49:40;;;;;;;4.70;3.20;;;24.60;29.50;;;;;;5037126;28;20483;-71
2022/07/28 09:52:07;;;;;;;6.07;3.70;;;25.10;28.70;;;;;;5020775;28;20882;-73
2022/07/28 09:54:34;;;;;;;6.00;3.60;;;25.10;28.70;;;;;;5016828;28;20508;-72
2022/07/28 09:57:02;;;;;;;4.13;3.73;;;24.70;29.40;;;;;;5014961;28;20489;-72
2022/07/28 09:59:43;;;;;;;7.80;4.50;;;24.80;29.70;;;;;;5014699;28;20454;-72
2022/07/28 10:02:11;;;;;;;4.70;3.93;;;24.40;29.90;;;;;;5014970;28;20441;-73
2022/07/28 10:04:39;;;;;;;5.87;3.90;;;24.60;30.00;;;;;;5015664;28;20554;-72
2022/07/28 10:07:09;;;;;;;4.77;3.90;;;24.80;29.80;;;;;;5015325;28;20462;-72
2022/07/28 10:09:37;;;;;;;4.77;4.00;;;25.00;29.50;;;;;;5013450;28;20995;-73
2022/07/28 10:12:20;;;;;;;12.13;4.40;;;25.10;29.30;;;;;;5012734;28;20708;-73
2022/07/28 10:14:49;;;;;;;6.17;3.80;;;25.50;29.10;;;;;;5013044;28;20506;-72
2022/07/28 10:17:29;;;;;;;3.93;3.63;;;25.80;28.20;;;;;;5015395;28;20504;-73
2022/07/28 10:19:57;;;;;;;5.50;4.30;;;25.80;28.20;;;;;;5016579;28;20454;-73
2022/07/28 10:22:28;;;;;;;4.30;4.00;;;25.60;28.70;;;;;;5016784;28;20474;-73
2022/07/28 10:24:57;;;;;;;5.27;3.77;;;25.40;28.90;;;;;;5016369;28;20450;-73
2022/07/28 10:27:26;;;;;;;5.17;3.70;;;26.20;27.90;;;;;;5016285;28;20457;-72
2022/07/28 10:29:57;;;;;;;7.17;4.03;;;26.70;26.70;;;;;;5016554;28;20462;-73
2022/07/28 10:32:24;;;;;;;5.70;4.03;;;26.80;26.40;;;;;;5015586;28;20483;-73
2022/07/28 10:34:54;;;;;;;6.20;4.67;;;26.30;27.40;;;;;;5015866;28;20454;-73
2022/07/28 10:37:23;;;;;;;5.00;4.17;;;26.00;28.20;;;;;;5018003;28;20451;-73
2022/07/28 10:40:00;;;;;;;7.10;4.40;;;26.30;27.70;;;;;;5018579;28;20447;-72
2022/07/28 10:42:29;;;;;;;6.73;4.13;;;26.20;27.70;;;;;;5021187;28;20430;-72
2022/07/28 10:44:57;;;;;;;6.10;4.50;;;26.40;27.40;;;;;;5026984;28;20821;-74
2022/07/28 10:47:25;;;;;;;6.93;4.50;;;26.80;26.80;;;;;;5019640;28;20873;-74
2022/07/28 10:49:52;;;;;;;5.20;4.60;;;27.10;26.20;;;;;;5018587;28;20453;-73
2022/07/28 10:52:20;;;;;;;7.27;4.47;;;27.20;25.80;;;;;;5017047;28;20540;-72
2022/07/28 10:54:51;;;;;;;6.13;4.93;;;26.80;26.80;;;;;;5015707;28;20487;-72
2022/07/28 10:57:19;;;;;;;4.83;3.90;;;27.20;25.50;;;;;;5015923;28;20446;-73
2022/07/28 11:00:03;;;;;;;5.00;4.40;;;27.10;25.40;;;;;;5016200;28;20501;-72
2022/07/28 11:03:01;;;;;;;10.10;5.03;;;27.00;26.50;;;;;;5016831;28;20796;-74
2022/07/28 11:05:30;;;;;;;7.90;4.33;;;26.90;26.40;;;;;;5015836;28;20476;-73
2022/07/28 11:07:59;;;;;;;7.03;4.50;;;26.90;26.40;;;;;;5018371;28;20514;-73
2022/07/28 11:10:42;;;;;;;7.60;4.73;;;27.10;25.80;;;;;;5018464;28;20814;-74
2022/07/28 11:13:27;;;;;;;5.13;4.40;;;27.20;26.10;;;;;;5017444;28;20465;-74
2022/07/28 11:15:56;;;;;;;4.53;4.23;;;27.30;26.00;;;;;;5017488;28;21071;-73
2022/07/28 11:18:23;;;;;;;4.80;4.40;;;27.70;25.80;;;;;;5017339;28;21244;-73
2022/07/28 11:21:09;;;;;;;6.63;4.40;;;27.60;25.70;;;;;;5017726;28;20557;-74
2022/07/28 11:23:54;;;;;;;4.87;4.47;;;27.20;26.30;;;;;;5015323;28;20523;-73
2022/07/28 11:26:38;;;;;;;5.83;5.23;;;27.20;26.00;;;;;;5015218;28;20973;-75
2022/07/28 11:29:18;;;;;;;4.63;4.30;;;27.70;25.80;;;;;;5015388;28;20462;-74
2022/07/28 11:32:01;;;;;;;5.67;5.03;;;27.90;25.90;;;;;;5015427;28;20433;-74
2022/07/28 11:34:48;;;;;;;4.63;4.23;;;27.50;25.70;;;;;;5015813;28;20483;-74
2022/07/28 11:37:15;;;;;;;6.27;4.30;;;27.30;25.50;;;;;;5014916;28;20421;-72
2022/07/28 11:39:42;;;;;;;7.03;4.70;;;27.30;25.50;;;;;;5014584;28;20462;-72
2022/07/28 11:42:25;;;;;;;6.50;4.50;;;27.50;25.70;;;;;;5014692;28;20461;-73
2022/07/28 11:44:53;;;;;;;5.73;4.30;;;27.60;25.70;;;;;;5014347;28;20536;-73
2022/07/28 11:47:22;;;;;;;8.03;4.60;;;28.00;25.10;;;;;;5013781;28;20521;-71
2022/07/28 11:50:10;;;;;;;5.17;4.67;;;28.10;25.30;;;;;;5014494;28;20458;-73
2022/07/28 11:52:37;;;;;;;4.70;4.30;;;27.90;25.90;;;;;;5013836;28;20483;-72
2022/07/28 11:55:05;;;;;;;5.23;4.83;;;27.90;25.90;;;;;;5014685;28;20478;-72
2022/07/28 11:57:40;;;;;;;5.47;4.97;;;27.90;25.90;;;;;;5014217;28;20465;-74
2022/07/28 12:00:08;;;;;;;5.83;4.30;;;27.90;25.90;;;;;;5014313;28;20415;-73
2022/07/28 12:02:36;;;;;;;4.70;4.17;;;28.40;24.80;;;;;;5014438;28;20457;-72
2022/07/28 12:05:12;;;;;;;5.23;4.70;;;28.10;25.30;;;;;;5014321;28;20480;-72
2022/07/28 12:07:41;;;;;;;7.20;4.70;;;28.10;25.40;;;;;;5013678;28;20930;-72
2022/07/28 12:10:30;;;;;;;4.90;4.40;;;28.60;24.40;;;;;;5013811;28;20893;-73
2022/07/28 12:12:58;;;;;;;4.90;4.40;;;28.20;24.70;;;;;;5014310;28;20501;-75
2022/07/28 12:15:26;;;;;;;5.70;4.30;;;28.70;24.00;;;;;;5014035;28;21054;-74
2022/07/28 12:17:55;;;;;;;7.07;4.60;;;29.10;23.20;;;;;;5014021;28;20495;-74
2022/07/28 12:20:22;;;;;;;5.10;3.80;;;29.10;23.00;;;;;;5015058;28;20458;-75
2022/07/28 12:23:01;;;;;;;4.30;3.97;;;28.80;23.40;;;;;;5016204;28;20594;-73
2022/07/28 12:25:29;;;;;;;5.40;4.57;;;28.70;23.80;;;;;;5017267;28;20501;-75
2022/07/28 12:27:57;;;;;;;5.20;4.50;;;28.70;23.70;;;;;;5016277;28;20459;-73
2022/07/28 12:30:26;;;;;;;4.57;4.17;;;28.90;23.40;;;;;;5015035;28;20470;-74
2022/07/28 12:32:55;;;;;;;5.50;5.00;;;28.70;23.40;;;;;;5014582;28;20495;-74
2022/07/28 12:35:24;;;;;;;7.53;4.80;;;28.70;23.30;;;;;;5013640;28;20495;-73
2022/07/28 12:37:51;;;;;;;4.90;4.50;;;28.90;23.80;;;;;;5013826;28;20462;-72
2022/07/28 12:40:19;;;;;;;4.77;4.37;;;29.00;23.00;;;;;;5013351;28;20447;-74
2022/07/28 12:42:53;;;;;;;4.90;4.20;;;29.10;22.90;;;;;;5013118;28;20526;-74
2022/07/28 12:45:20;;;;;;;4.73;4.43;;;29.10;23.00;;;;;;5013547;28;21002;-74
2022/07/28 12:47:47;;;;;;;4.50;4.20;;;29.10;22.30;;;;;;5013470;28;20460;-73
2022/07/28 12:50:17;;;;;;;6.80;4.70;;;29.10;22.30;;;;;;5014306;28;20484;-74
2022/07/28 12:53:00;;;;;;;4.90;4.40;;;29.20;22.30;;;;;;5014523;28;20498;-72
2022/07/28 12:55:42;;;;;;;5.70;4.53;;;29.50;22.00;;;;;;5014290;28;20476;-74
2022/07/28 12:58:22;;;;;;;7.60;4.57;;;29.70;21.60;;;;;;5015102;28;20471;-72